sensor_id;sensor_type;location;lat;lon;timestamp;pressure;altitude;pressure_sealevel;temperature;humidity
29733;BME280;16643;43.158;25.302;2023-01-28T00:01:10;97583.50;;;0.63;100.00
29733;BME280;16643;43.158;25.302;2023-01-28T00:03:35;97590.31;;;0.64;100.00
29733;BME280;16643;43.158;25.302;2023-01-28T00:06:06;97580.94;;;0.60;100.00
29733;BME280;16643;43.158;25.302;2023-01-28T00:08:32;97585.19;;;0.64;100.00
29733;BME280;16643;43.158;25.302;2023-01-28T00:11:01;97590.31;;;0.41;100.00
29733;BME280;16643;43.158;25.302;2023-01-28T00:13:27;97588.59;;;0.49;100.00
29733;BME280;16643;43.158;25.302;2023-01-28T00:15:56;97587.75;;;0.49;100.00
29733;BME280;16643;43.158;25.302;2023-01-28T00:18:23;97588.59;;;0.31;100.00
29733;BME280;16643;43.158;25.302;2023-01-28T00:23:47;97589.44;;;0.51;100.00
29733;BME280;16643;43.158;25.302;2023-01-28T00:26:15;97591.13;;;0.39;100.00
29733;BME280;16643;43.158;25.302;2023-01-28T00:28:40;97598.78;;;0.35;100.00
29733;BME280;16643;43.158;25.302;2023-01-28T00:31:16;97593.69;;;0.40;100.00
29733;BME280;16643;43.158;25.302;2023-01-28T00:33:43;97597.06;;;0.24;100.00
29733;BME280;16643;43.158;25.302;2023-01-28T00:36:10;97606.41;;;0.14;100.00
29733;BME280;16643;43.158;25.302;2023-01-28T00:38:36;97602.19;;;0.21;100.00
29733;BME280;16643;43.158;25.302;2023-01-28T00:41:08;97597.09;;;0.33;100.00
29733;BME280;16643;43.158;25.302;2023-01-28T00:43:37;97604.75;;;0.28;100.00
29733;BME280;16643;43.158;25.302;2023-01-28T00:46:03;97612.41;;;0.34;100.00
29733;BME280;16643;43.158;25.302;2023-01-28T00:48:29;97610.72;;;0.32;100.00
29733;BME280;16643;43.158;25.302;2023-01-28T00:50:54;97603.88;;;0.16;100.00
29733;BME280;16643;43.158;25.302;2023-01-28T00:53:21;97621.78;;;0.26;100.00
29733;BME280;16643;43.158;25.302;2023-01-28T00:55:46;97623.50;;;0.36;100.00
29733;BME280;16643;43.158;25.302;2023-01-28T00:58:12;97615.84;;;0.33;100.00
29733;BME280;16643;43.158;25.302;2023-01-28T01:00:37;97613.28;;;0.46;100.00
29733;BME280;16643;43.158;25.302;2023-01-28T01:03:03;97612.47;;;0.53;100.00
29733;BME280;16643;43.158;25.302;2023-01-28T01:05:28;97620.13;;;0.56;100.00
29733;BME280;16643;43.158;25.302;2023-01-28T01:07:54;97610.75;;;0.52;100.00
29733;BME280;16643;43.158;25.302;2023-01-28T01:10:19;97632.91;;;0.57;100.00
29733;BME280;16643;43.158;25.302;2023-01-28T01:12:45;97618.41;;;0.44;100.00
29733;BME280;16643;43.158;25.302;2023-01-28T01:15:11;97617.53;;;0.47;100.00
29733;BME280;16643;43.158;25.302;2023-01-28T01:17:37;97620.13;;;0.44;100.00
29733;BME280;16643;43.158;25.302;2023-01-28T01:20:03;97616.72;;;0.51;100.00
29733;BME280;16643;43.158;25.302;2023-01-28T01:22:33;97624.41;;;0.55;100.00
29733;BME280;16643;43.158;25.302;2023-01-28T01:24:59;97644.84;;;0.61;100.00
29733;BME280;16643;43.158;25.302;2023-01-28T01:27:24;97621.00;;;0.56;100.00
29733;BME280;16643;43.158;25.302;2023-01-28T01:29:50;97622.69;;;0.53;100.00
29733;BME280;16643;43.158;25.302;2023-01-28T01:32:15;97623.53;;;0.52;100.00
29733;BME280;16643;43.158;25.302;2023-01-28T01:34:40;97623.53;;;0.52;100.00
29733;BME280;16643;43.158;25.302;2023-01-28T01:37:06;97629.50;;;0.45;100.00
29733;BME280;16643;43.158;25.302;2023-01-28T01:39:33;97630.31;;;0.36;100.00
29733;BME280;16643;43.158;25.302;2023-01-28T01:41:58;97626.91;;;0.31;100.00
29733;BME280;16643;43.158;25.302;2023-01-28T01:47:09;97632.91;;;0.44;100.00
29733;BME280;16643;43.158;25.302;2023-01-28T01:49:34;97623.50;;;0.38;100.00
29733;BME280;16643;43.158;25.302;2023-01-28T01:52:01;97631.19;;;0.44;100.00
29733;BME280;16643;43.158;25.302;2023-01-28T01:54:27;97638.81;;;0.36;100.00
29733;BME280;16643;43.158;25.302;2023-01-28T01:56:54;97635.41;;;0.36;100.00
29733;BME280;16643;43.158;25.302;2023-01-28T01:59:27;97634.59;;;0.43;100.00
29733;BME280;16643;43.158;25.302;2023-01-28T02:01:53;97629.50;;;0.45;100.00
29733;BME280;16643;43.158;25.302;2023-01-28T02:04:24;97628.63;;;0.43;100.00
29733;BME280;16643;43.158;25.302;2023-01-28T02:06:50;97636.25;;;0.35;100.00
29733;BME280;16643;43.158;25.302;2023-01-28T02:09:23;97632.84;;;0.34;100.00
29733;BME280;16643;43.158;25.302;2023-01-28T02:11:49;97636.28;;;0.33;100.00
29733;BME280;16643;43.158;25.302;2023-01-28T02:14:16;97636.28;;;0.32;100.00
29733;BME280;16643;43.158;25.302;2023-01-28T02:16:41;97646.47;;;0.26;100.00
29733;BME280;16643;43.158;25.302;2023-01-28T02:19:07;97641.34;;;0.20;100.00
29733;BME280;16643;43.158;25.302;2023-01-28T02:26:33;97645.59;;;0.10;100.00
29733;BME280;16643;43.158;25.302;2023-01-28T02:31:33;97659.22;;;0.09;100.00
29733;BME280;16643;43.158;25.302;2023-01-28T02:34:08;97654.09;;;0.14;100.00
29733;BME280;16643;43.158;25.302;2023-01-28T02:39:08;97650.72;;;0.18;100.00
29733;BME280;16643;43.158;25.302;2023-01-28T02:41:39;97666.06;;;0.21;100.00
29733;BME280;16643;43.158;25.302;2023-01-28T02:44:08;97657.50;;;0.10;100.00
29733;BME280;16643;43.158;25.302;2023-01-28T02:46:34;97652.41;;;0.14;100.00
29733;BME280;16643;43.158;25.302;2023-01-28T02:54:44;97670.34;;;0.29;100.00
29733;BME280;16643;43.158;25.302;2023-01-28T02:57:08;97672.84;;;0.23;100.00
29733;BME280;16643;43.158;25.302;2023-01-28T02:59:50;97676.28;;;0.19;100.00
29733;BME280;16643;43.158;25.302;2023-01-28T03:02:35;97679.69;;;0.21;100.00
29733;BME280;16643;43.158;25.302;2023-01-28T03:07:29;97683.13;;;0.35;100.00
29733;BME280;16643;43.158;25.302;2023-01-28T03:09:56;97684.00;;;0.41;100.00
29733;BME280;16643;43.158;25.302;2023-01-28T03:12:24;97678.03;;;0.42;100.00
29733;BME280;16643;43.158;25.302;2023-01-28T03:15:09;97676.28;;;0.34;100.00
29733;BME280;16643;43.158;25.302;2023-01-28T03:18:00;97678.88;;;0.33;100.00
29733;BME280;16643;43.158;25.302;2023-01-28T03:23:52;97684.69;;;0.02;100.00
29733;BME280;16643;43.158;25.302;2023-01-28T03:26:37;97678.72;;;-0.05;100.00
29733;BME280;16643;43.158;25.302;2023-01-28T03:29:24;97683.00;;;-0.01;100.00
29733;BME280;16643;43.158;25.302;2023-01-28T03:32:08;97688.97;;;-0.01;100.00
29733;BME280;16643;43.158;25.302;2023-01-28T03:34:53;97687.31;;;0.15;100.00
29733;BME280;16643;43.158;25.302;2023-01-28T03:37:37;97692.41;;;0.12;100.00
29733;BME280;16643;43.158;25.302;2023-01-28T03:40:04;97694.13;;;0.18;100.00
29733;BME280;16643;43.158;25.302;2023-01-28T03:42:30;97693.25;;;0.10;100.00
29733;BME280;16643;43.158;25.302;2023-01-28T03:44:56;97692.41;;;0.08;100.00
29733;BME280;16643;43.158;25.302;2023-01-28T03:47:25;97698.38;;;0.11;100.00
29733;BME280;16643;43.158;25.302;2023-01-28T03:49:52;97696.69;;;0.19;100.00
29733;BME280;16643;43.158;25.302;2023-01-28T03:52:19;97703.56;;;0.31;100.00
29733;BME280;16643;43.158;25.302;2023-01-28T03:54:45;97700.13;;;0.21;100.00
29733;BME280;16643;43.158;25.302;2023-01-28T03:57:16;97706.91;;;0.19;100.00
29733;BME280;16643;43.158;25.302;2023-01-28T03:59:42;97715.41;;;0.11;100.00
29733;BME280;16643;43.158;25.302;2023-01-28T04:02:08;97712.00;;;0.13;100.00
29733;BME280;16643;43.158;25.302;2023-01-28T04:04:36;97710.28;;;0.09;100.00
29733;BME280;16643;43.158;25.302;2023-01-28T04:07:02;97717.13;;;0.16;100.00
29733;BME280;16643;43.158;25.302;2023-01-28T04:09:27;97722.22;;;0.10;100.00
29733;BME280;16643;43.158;25.302;2023-01-28T04:11:52;97727.31;;;0.09;100.00
29733;BME280;16643;43.158;25.302;2023-01-28T04:14:18;97723.03;;;0.05;100.00
29733;BME280;16643;43.158;25.302;2023-01-28T04:16:43;97728.94;;;-0.04;100.00
29733;BME280;16643;43.158;25.302;2023-01-28T04:19:09;97733.25;;;0.00;100.00
29733;BME280;16643;43.158;25.302;2023-01-28T04:21:37;97729.00;;;0.07;100.00
29733;BME280;16643;43.158;25.302;2023-01-28T04:24:02;97734.13;;;0.08;100.00
29733;BME280;16643;43.158;25.302;2023-01-28T04:26:28;97726.47;;;0.13;100.00
29733;BME280;16643;43.158;25.302;2023-01-28T04:28:53;97736.69;;;0.14;100.00
29733;BME280;16643;43.158;25.302;2023-01-28T04:31:19;97740.03;;;0.04;100.00
29733;BME280;16643;43.158;25.302;2023-01-28T04:33:44;97735.81;;;0.12;100.00
29733;BME280;16643;43.158;25.302;2023-01-28T04:36:09;97749.41;;;-0.01;100.00
29733;BME280;16643;43.158;25.302;2023-01-28T04:38:35;97746.03;;;0.08;100.00
29733;BME280;16643;43.158;25.302;2023-01-28T04:41:00;97751.09;;;0.03;100.00
29733;BME280;16643;43.158;25.302;2023-01-28T04:43:26;97753.72;;;0.14;100.00
29733;BME280;16643;43.158;25.302;2023-01-28T04:45:51;97766.53;;;0.20;100.00
29733;BME280;16643;43.158;25.302;2023-01-28T04:48:17;97757.13;;;0.16;100.00
29733;BME280;16643;43.158;25.302;2023-01-28T04:50:42;97762.22;;;0.14;100.00
29733;BME280;16643;43.158;25.302;2023-01-28T04:53:08;97765.69;;;0.21;100.00
29733;BME280;16643;43.158;25.302;2023-01-28T04:55:34;97770.00;;;0.31;100.00
29733;BME280;16643;43.158;25.302;2023-01-28T04:57:59;97772.53;;;0.29;100.00
29733;BME280;16643;43.158;25.302;2023-01-28T05:00:25;97773.34;;;0.25;100.00
29733;BME280;16643;43.158;25.302;2023-01-28T05:02:50;97776.78;;;0.27;100.00
29733;BME280;16643;43.158;25.302;2023-01-28T05:05:15;97787.75;;;0.13;100.00
29733;BME280;16643;43.158;25.302;2023-01-28T05:07:41;97789.44;;;0.06;100.00
29733;BME280;16643;43.158;25.302;2023-01-28T05:10:07;97786.03;;;0.07;100.00
29733;BME280;16643;43.158;25.302;2023-01-28T05:12:32;97777.56;;;0.11;100.00
29733;BME280;16643;43.158;25.302;2023-01-28T05:14:58;97791.19;;;0.16;100.00
29733;BME280;16643;43.158;25.302;2023-01-28T05:17:26;97795.44;;;0.16;100.00
29733;BME280;16643;43.158;25.302;2023-01-28T05:19:52;97800.53;;;0.14;100.00
29733;BME280;16643;43.158;25.302;2023-01-28T05:22:18;97803.06;;;0.08;100.00
29733;BME280;16643;43.158;25.302;2023-01-28T05:24:43;97803.06;;;0.07;100.00
29733;BME280;16643;43.158;25.302;2023-01-28T05:27:08;97804.84;;;0.20;100.00
29733;BME280;16643;43.158;25.302;2023-01-28T05:29:34;97803.16;;;0.23;100.00
29733;BME280;16643;43.158;25.302;2023-01-28T05:31:59;97800.59;;;0.20;100.00
29733;BME280;16643;43.158;25.302;2023-01-28T05:34:25;97806.41;;;0.01;100.00
29733;BME280;16643;43.158;25.302;2023-01-28T05:36:50;97806.50;;;0.13;100.00
29733;BME280;16643;43.158;25.302;2023-01-28T05:39:16;97815.88;;;0.14;100.00
29733;BME280;16643;43.158;25.302;2023-01-28T05:41:41;97820.16;;;0.18;100.00
29733;BME280;16643;43.158;25.302;2023-01-28T05:44:06;97826.16;;;0.20;100.00
29733;BME280;16643;43.158;25.302;2023-01-28T05:46:32;97829.59;;;0.30;100.00
29733;BME280;16643;43.158;25.302;2023-01-28T05:48:57;97825.28;;;0.20;100.00
29733;BME280;16643;43.158;25.302;2023-01-28T05:51:23;97826.97;;;0.18;100.00
29733;BME280;16643;43.158;25.302;2023-01-28T05:53:48;97828.75;;;0.29;100.00
29733;BME280;16643;43.158;25.302;2023-01-28T05:56:14;97834.72;;;0.33;100.00
29733;BME280;16643;43.158;25.302;2023-01-28T05:58:39;97832.19;;;0.36;100.00
29733;BME280;16643;43.158;25.302;2023-01-28T06:01:05;97833.03;;;0.36;100.00
29733;BME280;16643;43.158;25.302;2023-01-28T06:03:30;97835.59;;;0.40;100.00
29733;BME280;16643;43.158;25.302;2023-01-28T06:05:55;97836.50;;;0.48;100.00
29733;BME280;16643;43.158;25.302;2023-01-28T06:08:22;97828.75;;;0.35;100.00
29733;BME280;16643;43.158;25.302;2023-01-28T06:10:47;97836.44;;;0.32;100.00
29733;BME280;16643;43.158;25.302;2023-01-28T06:13:13;97838.97;;;0.34;100.00
29733;BME280;16643;43.158;25.302;2023-01-28T06:15:38;97842.38;;;0.31;100.00
29733;BME280;16643;43.158;25.302;2023-01-28T06:18:04;97839.78;;;0.22;100.00
29733;BME280;16643;43.158;25.302;2023-01-28T06:20:29;97845.69;;;0.15;100.00
29733;BME280;16643;43.158;25.302;2023-01-28T06:22:54;97843.06;;;0.06;100.00
29733;BME280;16643;43.158;25.302;2023-01-28T06:25:20;97844.81;;;0.09;100.00
29733;BME280;16643;43.158;25.302;2023-01-28T06:27:45;97849.06;;;0.14;100.00
29733;BME280;16643;43.158;25.302;2023-01-28T06:30:11;97851.63;;;0.14;100.00
29733;BME280;16643;43.158;25.302;2023-01-28T06:32:36;97861.00;;;0.15;100.00
29733;BME280;16643;43.158;25.302;2023-01-28T06:35:02;97866.25;;;0.32;100.00
29733;BME280;16643;43.158;25.302;2023-01-28T06:37:27;97868.81;;;0.36;100.00
29733;BME280;16643;43.158;25.302;2023-01-28T06:39:53;97873.97;;;0.41;100.00
29733;BME280;16643;43.158;25.302;2023-01-28T06:42:18;97869.69;;;0.42;100.00
29733;BME280;16643;43.158;25.302;2023-01-28T06:44:44;97880.81;;;0.45;100.00
29733;BME280;16643;43.158;25.302;2023-01-28T06:47:09;97873.94;;;0.40;100.00
29733;BME280;16643;43.158;25.302;2023-01-28T06:49:38;97888.38;;;0.31;100.00
29733;BME280;16643;43.158;25.302;2023-01-28T06:52:03;97890.06;;;0.29;100.00
29733;BME280;16643;43.158;25.302;2023-01-28T06:54:29;97887.59;;;0.43;100.00
29733;BME280;16643;43.158;25.302;2023-01-28T06:56:54;97890.19;;;0.51;100.00
29733;BME280;16643;43.158;25.302;2023-01-28T06:59:20;97904.66;;;0.49;100.00
29733;BME280;16643;43.158;25.302;2023-01-28T07:01:45;97903.84;;;0.53;100.00
29733;BME280;16643;43.158;25.302;2023-01-28T07:04:11;97902.13;;;0.52;100.00
29733;BME280;16643;43.158;25.302;2023-01-28T07:06:36;97898.59;;;0.30;100.00
29733;BME280;16643;43.158;25.302;2023-01-28T07:09:02;97910.47;;;0.26;100.00
29733;BME280;16643;43.158;25.302;2023-01-28T07:11:27;97908.72;;;0.19;100.00
29733;BME280;16643;43.158;25.302;2023-01-28T07:13:52;97913.88;;;0.27;100.00
29733;BME280;16643;43.158;25.302;2023-01-28T07:16:18;97913.06;;;0.29;100.00
29733;BME280;16643;43.158;25.302;2023-01-28T07:18:43;97910.53;;;0.35;100.00
29733;BME280;16643;43.158;25.302;2023-01-28T07:21:09;97907.94;;;0.29;100.00
29733;BME280;16643;43.158;25.302;2023-01-28T07:23:34;97913.91;;;0.30;100.00
29733;BME280;16643;43.158;25.302;2023-01-28T07:26:03;97913.06;;;0.29;100.00
29733;BME280;16643;43.158;25.302;2023-01-28T07:28:29;97916.50;;;0.38;100.00
29733;BME280;16643;43.158;25.302;2023-01-28T07:30:54;97917.31;;;0.29;100.00
29733;BME280;16643;43.158;25.302;2023-01-28T07:33:20;97920.75;;;0.32;100.00
29733;BME280;16643;43.158;25.302;2023-01-28T07:35:45;97919.91;;;0.35;100.00
29733;BME280;16643;43.158;25.302;2023-01-28T07:38:11;97917.38;;;0.38;100.00
29733;BME280;16643;43.158;25.302;2023-01-28T07:40:36;97916.53;;;0.39;100.00
29733;BME280;16643;43.158;25.302;2023-01-28T07:43:02;97917.41;;;0.43;100.00
29733;BME280;16643;43.158;25.302;2023-01-28T07:45:27;97917.41;;;0.41;100.00
29733;BME280;16643;43.158;25.302;2023-01-28T07:47:58;97919.91;;;0.33;100.00
29733;BME280;16643;43.158;25.302;2023-01-28T07:50:25;97919.13;;;0.42;100.00
29733;BME280;16643;43.158;25.302;2023-01-28T07:52:50;97919.16;;;0.50;100.00
29733;BME280;16643;43.158;25.302;2023-01-28T07:55:16;97924.25;;;0.50;100.00
29733;BME280;16643;43.158;25.302;2023-01-28T07:57:52;97926.84;;;0.53;100.00
29733;BME280;16643;43.158;25.302;2023-01-28T08:00:18;97930.34;;;0.68;100.00
29733;BME280;16643;43.158;25.302;2023-01-28T08:02:44;97932.88;;;0.68;100.00
29733;BME280;16643;43.158;25.302;2023-01-28T08:05:19;97935.50;;;0.79;100.00
29733;BME280;16643;43.158;25.302;2023-01-28T08:07:45;97931.25;;;0.75;100.00
29733;BME280;16643;43.158;25.302;2023-01-28T08:10:11;97931.28;;;0.83;100.00
29733;BME280;16643;43.158;25.302;2023-01-28T08:12:37;97939.84;;;0.92;100.00
29733;BME280;16643;43.158;25.302;2023-01-28T08:15:03;97944.16;;;1.02;100.00
29733;BME280;16643;43.158;25.302;2023-01-28T08:17:30;97925.41;;;1.05;100.00
29733;BME280;16643;43.158;25.302;2023-01-28T08:19:55;97931.41;;;1.12;100.00
29733;BME280;16643;43.158;25.302;2023-01-28T08:22:24;97929.72;;;1.18;100.00
29733;BME280;16643;43.158;25.302;2023-01-28T08:24:50;97939.13;;;1.21;100.00
29733;BME280;16643;43.158;25.302;2023-01-28T08:27:15;97938.25;;;1.19;100.00
29733;BME280;16643;43.158;25.302;2023-01-28T08:29:41;97934.84;;;1.24;100.00
29733;BME280;16643;43.158;25.302;2023-01-28T08:32:08;97929.75;;;1.23;100.00
29733;BME280;16643;43.158;25.302;2023-01-28T08:34:33;97937.38;;;1.14;100.00
29733;BME280;16643;43.158;25.302;2023-01-28T08:36:59;97941.63;;;1.05;100.00
29733;BME280;16643;43.158;25.302;2023-01-28T08:39:24;97928.81;;;1.05;100.00
29733;BME280;16643;43.158;25.302;2023-01-28T08:41:50;97934.81;;;1.07;100.00
29733;BME280;16643;43.158;25.302;2023-01-28T08:44:15;97932.25;;;1.14;100.00
29733;BME280;16643;43.158;25.302;2023-01-28T08:46:40;97937.44;;;1.23;100.00
29733;BME280;16643;43.158;25.302;2023-01-28T08:49:06;97933.16;;;1.25;100.00
29733;BME280;16643;43.158;25.302;2023-01-28T08:51:31;97928.88;;;1.25;100.00
29733;BME280;16643;43.158;25.302;2023-01-28T08:53:57;97928.03;;;1.25;100.00
29733;BME280;16643;43.158;25.302;2023-01-28T08:56:22;97922.94;;;1.23;100.00
29733;BME280;16643;43.158;25.302;2023-01-28T08:58:48;97924.59;;;1.11;100.00
29733;BME280;16643;43.158;25.302;2023-01-28T09:01:13;97923.69;;;0.99;100.00
29733;BME280;16643;43.158;25.302;2023-01-28T09:03:39;97936.44;;;0.93;100.00
29733;BME280;16643;43.158;25.302;2023-01-28T09:06:04;97922.00;;;1.01;100.00
29733;BME280;16643;43.158;25.302;2023-01-28T09:08:30;97922.81;;;0.97;100.00
29733;BME280;16643;43.158;25.302;2023-01-28T09:10:56;97907.50;;;1.05;100.00
29733;BME280;16643;43.158;25.302;2023-01-28T09:13:22;97913.47;;;1.01;100.00
29733;BME280;16643;43.158;25.302;2023-01-28T09:15:48;97914.31;;;1.03;100.00
29733;BME280;16643;43.158;25.302;2023-01-28T09:18:13;97914.34;;;1.07;100.00
29733;BME280;16643;43.158;25.302;2023-01-28T09:20:39;97920.31;;;1.16;100.00
29733;BME280;16643;43.158;25.302;2023-01-28T09:23:05;97910.97;;;1.21;100.00
29733;BME280;16643;43.158;25.302;2023-01-28T09:25:30;97917.00;;;1.35;100.00
29733;BME280;16643;43.158;25.302;2023-01-28T09:27:56;97913.59;;;1.40;100.00
29733;BME280;16643;43.158;25.302;2023-01-28T09:30:22;97912.75;;;1.43;100.00
29733;BME280;16643;43.158;25.302;2023-01-28T09:32:51;97917.91;;;1.57;100.00
29733;BME280;16643;43.158;25.302;2023-01-28T09:35:17;97911.91;;;1.52;100.00
29733;BME280;16643;43.158;25.302;2023-01-28T09:37:43;97911.06;;;1.62;100.00
29733;BME280;16643;43.158;25.302;2023-01-28T09:40:19;97911.06;;;1.56;100.00
29733;BME280;16643;43.158;25.302;2023-01-28T09:45:15;97923.84;;;1.48;100.00
29733;BME280;16643;43.158;25.302;2023-01-28T09:47:54;97918.75;;;1.59;100.00
29733;BME280;16643;43.158;25.302;2023-01-28T09:52:49;97912.78;;;1.66;100.00
29733;BME280;16643;43.158;25.302;2023-01-28T09:55:23;97927.31;;;1.74;100.00
29733;BME280;16643;43.158;25.302;2023-01-28T09:57:50;97917.06;;;1.74;100.00
29733;BME280;16643;43.158;25.302;2023-01-28T10:00:17;97925.59;;;1.73;100.00
29733;BME280;16643;43.158;25.302;2023-01-28T10:10:29;97932.44;;;1.82;100.00
29733;BME280;16643;43.158;25.302;2023-01-28T10:13:06;97928.19;;;1.82;100.00
29733;BME280;16643;43.158;25.302;2023-01-28T10:18:11;97927.31;;;1.74;100.00
29733;BME280;16643;43.158;25.302;2023-01-28T10:20:56;97929.00;;;1.72;100.00
29733;BME280;16643;43.158;25.302;2023-01-28T10:23:43;97922.22;;;1.79;100.00
29733;BME280;16643;43.158;25.302;2023-01-28T10:26:14;97917.94;;;1.95;100.00
29733;BME280;16643;43.158;25.302;2023-01-28T10:28:40;97927.28;;;1.70;100.00
29733;BME280;16643;43.158;25.302;2023-01-28T10:31:11;97927.31;;;1.64;100.00
29733;BME280;16643;43.158;25.302;2023-01-28T10:33:36;97929.03;;;1.68;100.00
29733;BME280;16643;43.158;25.302;2023-01-28T10:36:04;97929.06;;;1.80;100.00
29733;BME280;16643;43.158;25.302;2023-01-28T10:38:30;97934.19;;;1.91;100.00
29733;BME280;16643;43.158;25.302;2023-01-28T10:40:57;97927.31;;;1.82;100.00
29733;BME280;16643;43.158;25.302;2023-01-28T10:43:24;97922.22;;;1.87;100.00
29733;BME280;16643;43.158;25.302;2023-01-28T10:48:28;97926.47;;;1.92;100.00
29733;BME280;16643;43.158;25.302;2023-01-28T10:50:55;97922.22;;;2.03;100.00
29733;BME280;16643;43.158;25.302;2023-01-28T10:53:32;97917.06;;;1.93;100.00
29733;BME280;16643;43.158;25.302;2023-01-28T10:55:58;97919.66;;;1.99;100.00
29733;BME280;16643;43.158;25.302;2023-01-28T10:58:25;97923.06;;;1.98;100.00
29733;BME280;16643;43.158;25.302;2023-01-28T11:00:56;97929.06;;;2.00;100.00
29733;BME280;16643;43.158;25.302;2023-01-28T11:03:22;97930.78;;;2.01;100.00
29733;BME280;16643;43.158;25.302;2023-01-28T11:05:51;97938.44;;;1.90;100.00
29733;BME280;16643;43.158;25.302;2023-01-28T11:08:17;97929.06;;;1.88;100.00
29733;BME280;16643;43.158;25.302;2023-01-28T11:10:43;97929.88;;;1.85;100.00
29733;BME280;16643;43.158;25.302;2023-01-28T11:13:28;97921.34;;;1.86;100.00
29733;BME280;16643;43.158;25.302;2023-01-28T11:18:23;97917.09;;;1.91;100.00
29733;BME280;16643;43.158;25.302;2023-01-28T11:20:55;97914.53;;;1.96;100.00
29733;BME280;16643;43.158;25.302;2023-01-28T11:23:23;97926.50;;;1.91;100.00
29733;BME280;16643;43.158;25.302;2023-01-28T11:25:48;97926.47;;;1.78;100.00
29733;BME280;16643;43.158;25.302;2023-01-28T11:28:23;97913.66;;;1.78;100.00
29733;BME280;16643;43.158;25.302;2023-01-28T11:30:49;97926.47;;;1.83;100.00
29733;BME280;16643;43.158;25.302;2023-01-28T11:33:18;97924.75;;;1.82;100.00
29733;BME280;16643;43.158;25.302;2023-01-28T11:35:55;97921.34;;;1.88;100.00
29733;BME280;16643;43.158;25.302;2023-01-28T11:38:21;97930.75;;;1.95;100.00
29733;BME280;16643;43.158;25.302;2023-01-28T11:40:53;97919.66;;;1.96;100.00
29733;BME280;16643;43.158;25.302;2023-01-28T11:43:21;97923.94;;;2.00;100.00
29733;BME280;16643;43.158;25.302;2023-01-28T11:51:06;97941.00;;;1.86;100.00
29733;BME280;16643;43.158;25.302;2023-01-28T11:53:54;97929.88;;;1.76;100.00
29733;BME280;16643;43.158;25.302;2023-01-28T11:56:29;97931.59;;;1.77;100.00
29733;BME280;16643;43.158;25.302;2023-01-28T12:01:36;97935.88;;;1.87;100.00
29733;BME280;16643;43.158;25.302;2023-01-28T12:17:40;97928.22;;;2.02;100.00
29733;BME280;16643;43.158;25.302;2023-01-28T12:20:25;97925.63;;;2.14;100.00
29733;BME280;16643;43.158;25.302;2023-01-28T12:22:29;97935.03;;;2.03;100.00
29733;BME280;16643;43.158;25.302;2023-01-28T12:25:11;97930.75;;;1.99;100.00
29733;BME280;16643;43.158;25.302;2023-01-28T12:35:21;97938.47;;;2.22;100.00
29733;BME280;16643;43.158;25.302;2023-01-28T12:37:55;97926.50;;;2.18;100.00
29733;BME280;16643;43.158;25.302;2023-01-28T12:40:33;97940.16;;;2.15;100.00
29733;BME280;16643;43.158;25.302;2023-01-28T12:43:07;97937.59;;;2.17;100.00
29733;BME280;16643;43.158;25.302;2023-01-28T12:45:39;97937.59;;;2.23;100.00
29733;BME280;16643;43.158;25.302;2023-01-28T12:50:53;97935.91;;;2.21;100.00
29733;BME280;16643;43.158;25.302;2023-01-28T12:53:24;97938.47;;;2.22;100.00
29733;BME280;16643;43.158;25.302;2023-01-28T12:55:57;97955.56;;;2.23;100.00
29733;BME280;16643;43.158;25.302;2023-01-28T12:58:31;97935.91;;;2.22;100.00
29733;BME280;16643;43.158;25.302;2023-01-28T13:00:59;97941.03;;;2.24;100.00
29733;BME280;16643;43.158;25.302;2023-01-28T13:03:40;97942.72;;;2.20;100.00
29733;BME280;16643;43.158;25.302;2023-01-28T13:06:11;97945.31;;;2.14;100.00
29733;BME280;16643;43.158;25.302;2023-01-28T13:08:39;97947.00;;;2.16;100.00
29733;BME280;16643;43.158;25.302;2023-01-28T13:11:04;97951.25;;;2.17;100.00
29733;BME280;16643;43.158;25.302;2023-01-28T13:13:35;97958.97;;;2.11;100.00
29733;BME280;16643;43.158;25.302;2023-01-28T13:16:01;97958.97;;;2.11;100.00
29733;BME280;16643;43.158;25.302;2023-01-28T13:23:40;97953.84;;;2.02;100.00
29733;BME280;16643;43.158;25.302;2023-01-28T13:28:53;97961.53;;;2.13;100.00
29733;BME280;16643;43.158;25.302;2023-01-28T13:31:35;97967.50;;;2.07;100.00
29733;BME280;16643;43.158;25.302;2023-01-28T13:34:01;97974.31;;;2.07;100.00
29733;BME280;16643;43.158;25.302;2023-01-28T13:41:46;97986.28;;;2.02;100.00
29733;BME280;16643;43.158;25.302;2023-01-28T13:44:31;97979.44;;;1.92;100.00
29733;BME280;16643;43.158;25.302;2023-01-28T13:47:12;97982.84;;;1.92;100.00
29733;BME280;16643;43.158;25.302;2023-01-28T13:54:37;97984.56;;;1.89;100.00
29733;BME280;16643;43.158;25.302;2023-01-28T14:15:13;97995.63;;;1.77;100.00
29733;BME280;16643;43.158;25.302;2023-01-28T14:17:51;98003.31;;;1.81;100.00
29733;BME280;16643;43.158;25.302;2023-01-28T14:20:22;98000.72;;;1.68;100.00
29733;BME280;16643;43.158;25.302;2023-01-28T14:22:50;98011.03;;;1.80;100.00
29733;BME280;16643;43.158;25.302;2023-01-28T14:25:21;97993.06;;;1.83;100.00
29733;BME280;16643;43.158;25.302;2023-01-28T14:27:51;97999.94;;;1.90;100.00
29733;BME280;16643;43.158;25.302;2023-01-28T14:32:50;98006.78;;;1.97;100.00
29733;BME280;16643;43.158;25.302;2023-01-28T14:35:18;98001.63;;;1.96;100.00
29733;BME280;16643;43.158;25.302;2023-01-28T14:37:45;98007.63;;;1.89;100.00
29733;BME280;16643;43.158;25.302;2023-01-28T14:40:11;98001.63;;;1.93;100.00
29733;BME280;16643;43.158;25.302;2023-01-28T14:42:39;98003.38;;;2.00;100.00
29733;BME280;16643;43.158;25.302;2023-01-28T14:48:15;98013.56;;;1.80;100.00
29733;BME280;16643;43.158;25.302;2023-01-28T14:50:48;98008.44;;;1.83;100.00
29733;BME280;16643;43.158;25.302;2023-01-28T14:56:38;98011.84;;;1.83;100.00
29733;BME280;16643;43.158;25.302;2023-01-28T14:58:45;98015.25;;;1.82;100.00